Time;durP1;ratioP1;P1;durP2;ratioP2;P2;SDS_P1;SDS_P2;PMS_P1;PMS_P2;Temp;Humidity;BMP_temperature;BMP_pressure;BME280_temperature;BME280_humidity;BME280_pressure;Samples;Min_cycle;Max_cycle;Signal;HPM_P1;HPM_P2
2021/03/21 00:01:25;;;;;;;36.05;23.30;;;103.10;2073.60;;;;;;5070120;28;20037;-60
2021/03/21 00:03:53;;;;;;;31.48;19.67;;;103.10;2073.60;;;;;;5070183;28;20094;-60
2021/03/21 00:06:19;;;;;;;32.70;21.67;;;103.10;2022.40;;;;;;5069987;28;20028;-60
2021/03/21 00:08:44;;;;;;;32.22;21.17;;;103.00;2022.40;;;;;;5070236;28;20470;-59
2021/03/21 00:11:10;;;;;;;33.38;22.30;;;103.10;2048.00;;;;;;5070410;28;20036;-61
2021/03/21 00:13:36;;;;;;;30.65;20.50;;;103.10;2048.00;;;;;;5070025;28;20398;-61
2021/03/21 00:16:04;;;;;;;31.60;22.17;;;103.10;2048.00;;;;;;5070219;28;20060;-60
2021/03/21 00:18:33;;;;;;;36.58;22.75;;;103.00;2099.20;;;;;;5069821;28;20363;-60
2021/03/21 00:20:59;;;;;;;33.40;22.77;;;102.90;2124.80;;;;;;5069802;28;20385;-60
2021/03/21 00:23:25;;;;;;;40.90;25.88;;;102.90;2124.80;;;;;;5069559;28;20021;-60
2021/03/21 00:25:51;;;;;;;33.53;23.15;;;102.90;2099.20;;;;;;5069914;28;20025;-60
2021/03/21 00:28:20;;;;;;;38.60;25.00;;;102.90;2099.20;;;;;;5069845;28;20051;-60
2021/03/21 00:30:48;;;;;;;36.47;23.50;;;103.00;2048.00;;;;;;5069922;28;20117;-61
2021/03/21 00:33:22;;;;;;;40.85;25.05;;;103.00;2048.00;;;;;;5069796;28;20082;-59
2021/03/21 00:35:48;;;;;;;39.38;24.48;;;103.00;2048.00;;;;;;5069493;28;20056;-60
2021/03/21 00:38:23;;;;;;;32.70;19.98;;;102.90;2048.00;;;;;;5069830;28;20060;-60
2021/03/21 00:40:50;;;;;;;39.53;23.67;;;103.00;2048.00;;;;;;5069784;28;20035;-60
2021/03/21 00:43:16;;;;;;;34.80;19.83;;;103.00;1996.80;;;;;;5069711;28;20109;-60
2021/03/21 00:45:42;;;;;;;33.17;21.25;;;103.00;2022.40;;;;;;5069753;28;20028;-60
2021/03/21 00:48:13;;;;;;;30.52;20.48;;;103.00;2022.40;;;;;;5069680;28;20040;-60
2021/03/21 00:50:39;;;;;;;30.23;19.40;;;103.00;2048.00;;;;;;5069649;28;20032;-60
2021/03/21 00:53:05;;;;;;;44.40;30.48;;;102.90;2099.20;;;;;;5070026;28;20614;-60
2021/03/21 00:55:30;;;;;;;31.05;19.70;;;102.90;2073.60;;;;;;5069911;28;20413;-61
2021/03/21 00:57:56;;;;;;;31.35;21.30;;;103.00;2073.60;;;;;;5071261;28;20086;-61
2021/03/21 01:00:39;;;;;;;27.77;18.13;;;102.90;2048.00;;;;;;5073416;28;20462;-61
2021/03/21 01:03:05;;;;;;;25.00;16.63;;;102.90;2048.00;;;;;;5073259;28;20028;-61
2021/03/21 01:05:36;;;;;;;26.77;18.08;;;102.80;2048.00;;;;;;5073714;28;20040;-61
2021/03/21 01:08:05;;;;;;;28.30;18.67;;;103.10;2048.00;;;;;;5073350;28;20031;-61
2021/03/21 01:10:35;;;;;;;27.60;18.17;;;102.90;2048.00;;;;;;5073425;28;20021;-61
2021/03/21 01:13:02;;;;;;;29.75;19.30;;;102.90;2048.00;;;;;;5073250;28;20095;-60
2021/03/21 01:15:29;;;;;;;29.58;18.75;;;102.90;2048.00;;;;;;5072840;28;20500;-60
2021/03/21 01:17:56;;;;;;;31.33;17.80;;;103.00;2048.00;;;;;;5072853;28;20029;-60
2021/03/21 01:20:25;;;;;;;27.25;17.90;;;102.90;2048.00;;;;;;5073346;28;20024;-61
2021/03/21 01:22:51;;;;;;;58.53;38.75;;;102.80;2048.00;;;;;;5073175;28;20028;-60
2021/03/21 01:25:22;;;;;;;29.45;19.63;;;102.90;2022.40;;;;;;5072918;28;20082;-61
2021/03/21 01:27:48;;;;;;;35.65;25.95;;;102.80;2048.00;;;;;;5072781;28;20029;-61
2021/03/21 01:30:16;;;;;;;32.35;23.38;;;102.90;2022.40;;;;;;5072999;28;20024;-60
2021/03/21 01:32:41;;;;;;;34.83;21.77;;;102.90;2022.40;;;;;;5072527;28;20032;-60
2021/03/21 01:35:09;;;;;;;32.00;21.55;;;102.90;2073.60;;;;;;5072570;28;20386;-60
2021/03/21 01:37:34;;;;;;;30.05;20.20;;;102.70;2099.20;;;;;;5072459;28;20063;-59
2021/03/21 01:40:00;;;;;;;34.83;21.65;;;102.60;2099.20;;;;;;5072569;28;20463;-60
2021/03/21 01:42:45;;;;;;;30.42;19.30;;;102.70;2099.20;;;;;;5072439;28;20182;-61
2021/03/21 01:45:41;;;;;;;29.85;19.27;;;102.70;2073.60;;;;;;5072638;28;20020;-60
2021/03/21 01:48:32;;;;;;;26.98;17.50;;;102.60;2073.60;;;;;;5072408;28;20031;-61
2021/03/21 01:51:00;;;;;;;28.13;19.52;;;102.70;2073.60;;;;;;5072255;28;20502;-60
2021/03/21 01:53:28;;;;;;;36.03;21.48;;;102.60;2048.00;;;;;;5072215;28;20461;-61
2021/03/21 01:55:55;;;;;;;29.05;19.48;;;102.70;2048.00;;;;;;5072303;28;20052;-60
2021/03/21 01:58:23;;;;;;;36.10;21.60;;;102.70;2048.00;;;;;;5072492;28;20032;-60
2021/03/21 02:00:52;;;;;;;36.28;21.85;;;102.70;2048.00;;;;;;5072377;28;20529;-61
2021/03/21 02:03:17;;;;;;;26.48;18.98;;;102.60;2048.00;;;;;;5072431;28;20041;-60
2021/03/21 02:05:43;;;;;;;34.10;20.52;;;102.60;2073.60;;;;;;5072289;28;20032;-60
2021/03/21 02:08:27;;;;;;;34.78;22.63;;;102.60;2099.20;;;;;;5071681;28;20095;-60
2021/03/21 02:11:01;;;;;;;;;;;102.50;2150.40;;;;;;5072648;28;20029;-60
2021/03/21 02:13:50;;;;;;;33.00;19.30;;;102.50;2124.80;;;;;;5071736;28;19904;-60
2021/03/21 02:16:24;;;;;;;37.72;22.27;;;102.40;2150.40;;;;;;5071819;28;20367;-62
2021/03/21 02:19:07;;;;;;;;;;;102.40;2124.80;;;;;;5072100;28;20107;-61
2021/03/21 02:21:41;;;;;;;29.27;18.77;;;102.50;2124.80;;;;;;5071956;28;19908;-60
2021/03/21 02:24:44;;;;;;;31.90;19.75;;;102.40;2150.40;;;;;;5071703;28;20028;-61
2021/03/21 02:27:31;;;;;;;36.57;20.60;;;77.70;2176.00;;;;;;5071467;28;20162;-60
2021/03/21 02:30:16;;;;;;;35.60;21.65;;;77.60;2176.00;;;;;;5071456;28;20353;-60
2021/03/21 02:32:56;;;;;;;31.95;22.27;;;77.60;2201.60;;;;;;5071488;28;20060;-60
2021/03/21 02:35:22;;;;;;;34.25;22.52;;;77.60;2176.00;;;;;;5071575;28;20029;-60
2021/03/21 02:38:00;;;;;;;38.53;21.08;;;77.60;2150.40;;;;;;5071247;28;20072;-60
2021/03/21 02:40:39;;;;;;;29.23;20.02;;;77.60;2176.00;;;;;;5071448;28;20016;-60
2021/03/21 02:43:16;;;;;;;37.65;22.20;;;77.60;2176.00;;;;;;5071784;28;20386;-62
2021/03/21 02:45:45;;;;;;;32.67;20.60;;;77.60;2176.00;;;;;;5071619;28;20025;-60
2021/03/21 02:48:33;;;;;;;36.47;21.92;;;77.50;2176.00;;;;;;5071377;28;20117;-60
2021/03/21 02:51:07;;;;;;;35.58;22.38;;;77.60;2176.00;;;;;;5071282;28;20107;-61
2021/03/21 02:53:48;;;;;;;34.83;20.75;;;77.60;2176.00;;;;;;5071368;28;20017;-60
2021/03/21 02:56:22;;;;;;;29.02;21.95;;;77.60;2176.00;;;;;;5070330;28;20474;-60
2021/03/21 02:58:54;;;;;;;40.38;25.10;;;77.60;2150.40;;;;;;5071095;28;20052;-61
2021/03/21 03:01:24;;;;;;;36.33;21.75;;;77.60;2176.00;;;;;;5070921;28;20111;-60
2021/03/21 03:03:53;;;;;;;28.58;19.10;;;77.60;2150.40;;;;;;5070997;28;20136;-60
2021/03/21 03:06:26;;;;;;;29.23;19.70;;;77.60;2150.40;;;;;;5071002;28;20386;-60
2021/03/21 03:09:02;;;;;;;38.53;23.02;;;77.70;2124.80;;;;;;5071156;28;20029;-60
2021/03/21 03:11:42;;;;;;;33.40;20.15;;;77.70;2124.80;;;;;;5070836;28;20040;-60
2021/03/21 03:14:14;;;;;;;31.58;19.45;;;77.70;2099.20;;;;;;5070681;28;20085;-60
2021/03/21 03:16:48;;;;;;;31.25;20.73;;;77.70;2099.20;;;;;;5070453;28;20498;-60
2021/03/21 03:19:29;;;;;;;30.50;18.40;;;77.70;2099.20;;;;;;5070756;28;20020;-60
2021/03/21 03:22:19;;;;;;;34.08;19.58;;;77.50;2099.20;;;;;;5070222;28;20032;-60
2021/03/21 03:25:10;;;;;;;31.95;19.70;;;77.60;2124.80;;;;;;5070621;28;20031;-60
2021/03/21 03:28:11;;;;;;;33.92;21.38;;;77.60;2099.20;;;;;;5070268;28;20382;-60
2021/03/21 03:30:58;;;;;;;31.85;18.45;;;77.50;2099.20;;;;;;5048221;28;20419;-60
2021/03/21 03:33:25;;;;;;;29.77;20.02;;;77.40;2124.80;;;;;;5048461;28;20045;-60
2021/03/21 03:35:52;;;;;;;32.35;18.98;;;77.40;2124.80;;;;;;5048224;28;20033;-60
2021/03/21 03:38:20;;;;;;;27.58;17.58;;;77.40;2099.20;;;;;;5048174;28;20060;-60
2021/03/21 03:40:47;;;;;;;27.27;18.73;;;77.50;2099.20;;;;;;5047933;28;20479;-60
2021/03/21 03:43:45;;;;;;;28.75;19.10;;;77.50;2073.60;;;;;;5048203;28;20025;-59
2021/03/21 03:46:29;;;;;;;28.77;19.05;;;77.50;2073.60;;;;;;5048186;28;20041;-60
2021/03/21 03:49:23;;;;;;;34.25;25.00;;;77.40;2073.60;;;;;;5048251;28;20035;-60
2021/03/21 03:52:06;;;;;;;40.83;26.20;;;77.50;2073.60;;;;;;5048179;28;20086;-60
2021/03/21 03:54:38;;;;;;;35.17;21.58;;;77.60;2073.60;;;;;;5048099;28;20025;-60
2021/03/21 03:57:14;;;;;;;38.13;20.73;;;77.50;2099.20;;;;;;5048082;28;20040;-60
2021/03/21 03:59:57;;;;;;;39.22;22.27;;;77.50;2073.60;;;;;;5047861;28;20033;-60
2021/03/21 04:02:33;;;;;;;33.17;20.13;;;77.60;2073.60;;;;;;5048054;28;20029;-60
2021/03/21 04:05:12;;;;;;;31.67;21.90;;;77.60;2099.20;;;;;;5062527;28;20036;-61
2021/03/21 04:07:56;;;;;;;35.70;20.95;;;77.60;2099.20;;;;;;5069959;28;20059;-59
2021/03/21 04:10:24;;;;;;;;;;;77.60;2099.20;;;;;;5070533;28;20029;-60
2021/03/21 04:13:18;;;;;;;36.28;23.60;;;77.60;2124.80;;;;;;5069910;28;19911;-60
2021/03/21 04:15:49;;;;;;;34.70;21.50;;;77.30;2176.00;;;;;;5047952;28;20087;-60
2021/03/21 04:18:47;;;;;;;36.53;23.77;;;77.30;2201.60;;;;;;5047952;28;20044;-59
2021/03/21 04:21:35;;;;;;;32.08;19.55;;;77.40;2227.20;;;;;;5047784;28;20438;-60
2021/03/21 04:24:03;;;;;;;31.02;21.00;;;77.40;2227.20;;;;;;5047815;28;20029;-60
2021/03/21 04:26:40;;;;;;;33.80;22.58;;;77.40;2227.20;;;;;;5047659;28;20033;-60
2021/03/21 04:29:48;;;;;;;34.95;23.33;;;77.40;2227.20;;;;;;5047535;28;20025;-60
2021/03/21 04:32:19;;;;;;;49.45;27.13;;;77.40;2227.20;;;;;;4990631;28;20034;-60
2021/03/21 04:34:50;;;;;;;32.92;22.48;;;77.40;2227.20;;;;;;5044215;28;20043;-60
2021/03/21 04:37:18;;;;;;;37.08;22.90;;;77.30;2227.20;;;;;;5051219;28;20049;-60
2021/03/21 04:39:45;;;;;;;39.92;25.13;;;77.20;2227.20;;;;;;5051461;28;20045;-59
2021/03/21 04:42:15;;;;;;;39.70;24.05;;;77.20;2227.20;;;;;;5051733;28;20091;-60
2021/03/21 04:44:46;;;;;;;44.75;26.35;;;77.20;2227.20;;;;;;5051596;28;20530;-59
2021/03/21 04:47:43;;;;;;;41.47;25.70;;;77.10;2227.20;;;;;;5051624;28;20087;-60
2021/03/21 04:50:10;;;;;;;43.58;26.05;;;77.30;2227.20;;;;;;5031081;28;20047;-65
2021/03/21 04:52:58;;;;;;;44.22;25.48;;;77.20;2227.20;;;;;;5065111;28;20055;-61
2021/03/21 04:55:51;;;;;;;112.13;69.10;;;77.30;2227.20;;;;;;5077729;28;20024;-64
2021/03/21 04:58:32;;;;;;;44.53;27.75;;;77.30;2227.20;;;;;;5077398;28;20446;-60
2021/03/21 05:01:23;;;;;;;49.83;28.23;;;77.30;2227.20;;;;;;5076134;28;20501;-61
2021/03/21 05:04:17;;;;;;;44.78;27.77;;;77.30;2227.20;;;;;;5078613;28;20024;-61
2021/03/21 05:06:49;;;;;;;40.65;28.48;;;77.30;2227.20;;;;;;5077883;28;20025;-60
2021/03/21 05:09:19;;;;;;;44.67;30.60;;;77.10;2227.20;;;;;;5078787;28;20115;-61
2021/03/21 05:11:53;;;;;;;47.13;28.40;;;77.20;2227.20;;;;;;5077982;28;20039;-67
2021/03/21 05:14:26;;;;;;;44.97;30.33;;;77.20;2227.20;;;;;;5077947;28;20021;-60
2021/03/21 05:17:03;;;;;;;43.22;28.13;;;77.20;2227.20;;;;;;5074106;28;20082;-60
2021/03/21 05:19:37;;;;;;;44.60;28.55;;;77.20;2227.20;;;;;;5072887;28;20040;-59
2021/03/21 05:22:26;;;;;;;46.70;31.45;;;77.00;2227.20;;;;;;5073270;28;20056;-60
2021/03/21 05:25:30;;;;;;;45.30;28.02;;;77.00;2227.20;;;;;;5072983;28;20024;-60
2021/03/21 05:28:03;;;;;;;;;;;77.00;2227.20;;;;;;5071906;28;20060;-59
2021/03/21 05:30:31;;;;;;;41.97;26.40;;;77.20;2227.20;;;;;;5072693;28;19911;-60
2021/03/21 05:32:58;;;;;;;47.92;28.45;;;77.20;2227.20;;;;;;5072560;28;20086;-59
2021/03/21 05:35:28;;;;;;;42.53;29.08;;;77.10;2227.20;;;;;;5072726;28;20041;-60
2021/03/21 05:38:31;;;;;;;38.13;24.55;;;77.20;2227.20;;;;;;5072662;28;20127;-60
2021/03/21 05:40:59;;;;;;;40.47;27.17;;;77.20;2227.20;;;;;;5072507;28;20045;-60
2021/03/21 05:43:43;;;;;;;40.58;27.10;;;77.30;2227.20;;;;;;5071987;28;20043;-60
2021/03/21 05:46:46;;;;;;;48.42;27.90;;;77.20;2227.20;;;;;;5072623;28;20027;-60
2021/03/21 05:49:46;;;;;;;43.88;26.55;;;77.20;2227.20;;;;;;5072550;28;20025;-60
2021/03/21 05:52:27;;;;;;;42.47;27.45;;;77.30;2227.20;;;;;;5072619;28;20035;-61
2021/03/21 05:55:05;;;;;;;47.50;34.55;;;77.30;2227.20;;;;;;5072541;28;20063;-60
2021/03/21 05:58:08;;;;;;;42.47;27.40;;;77.10;2227.20;;;;;;5072473;28;20036;-60
2021/03/21 06:00:40;;;;;;;42.83;28.38;;;77.10;2227.20;;;;;;5072309;28;20433;-60
2021/03/21 06:03:53;;;;;;;49.10;30.10;;;76.90;2227.20;;;;;;5072472;28;20047;-60
2021/03/21 06:06:37;;;;;;;41.15;25.17;;;76.90;2227.20;;;;;;5049750;28;20441;-60
2021/03/21 06:09:29;;;;;;;38.35;23.08;;;76.90;2227.20;;;;;;5050078;28;20025;-60
2021/03/21 06:11:54;;;;;;;41.50;24.55;;;77.00;2227.20;;;;;;5050078;28;20100;-60
2021/03/21 06:14:47;;;;;;;40.35;23.77;;;76.90;2227.20;;;;;;5049794;28;20021;-60
2021/03/21 06:17:22;;;;;;;36.37;24.17;;;77.00;2227.20;;;;;;5049859;28;20044;-59
2021/03/21 06:20:14;;;;;;;35.95;22.65;;;76.90;2227.20;;;;;;5049854;28;20324;-60
2021/03/21 06:23:15;;;;;;;34.00;22.73;;;76.80;2227.20;;;;;;5049710;28;20667;-60
2021/03/21 06:26:11;;;;;;;33.88;22.35;;;52.10;2227.20;;;;;;5049587;28;20025;-59
2021/03/21 06:29:07;;;;;;;33.58;20.88;;;51.90;2227.20;;;;;;4989992;28;20469;-60
2021/03/21 06:31:48;;;;;;;34.22;20.20;;;51.80;2227.20;;;;;;4990329;28;20089;-60
2021/03/21 06:34:26;;;;;;;34.88;21.23;;;51.90;2227.20;;;;;;4990449;28;20042;-59
2021/03/21 06:36:56;;;;;;;36.33;22.90;;;52.00;2227.20;;;;;;4990037;28;20615;-59
2021/03/21 06:39:50;;;;;;;36.60;23.17;;;52.00;2227.20;;;;;;4990169;28;20049;-59
2021/03/21 06:42:28;;;;;;;31.27;19.45;;;52.10;2227.20;;;;;;4996316;28;20088;-59
2021/03/21 06:45:29;;;;;;;39.10;24.83;;;51.90;2227.20;;;;;;5009704;28;20030;-60
2021/03/21 06:48:15;;;;;;;32.03;19.10;;;52.10;2227.20;;;;;;5002121;28;20519;-60
2021/03/21 06:51:15;;;;;;;31.52;19.75;;;76.80;2227.20;;;;;;5009754;28;20022;-60
2021/03/21 06:53:54;;;;;;;47.13;39.10;;;76.80;2227.20;;;;;;5009392;28;20042;-60
2021/03/21 06:56:31;;;;;;;35.92;23.10;;;76.80;2227.20;;;;;;5008074;28;20041;-60
2021/03/21 06:59:21;;;;;;;50.80;29.05;;;52.10;2227.20;;;;;;5009180;28;20037;-60
2021/03/21 07:02:14;;;;;;;34.83;23.40;;;76.90;2227.20;;;;;;5009379;28;20508;-60
2021/03/21 07:05:20;;;;;;;33.73;20.90;;;76.80;2227.20;;;;;;5012436;28;20396;-60
2021/03/21 07:08:16;;;;;;;39.83;22.95;;;76.80;2227.20;;;;;;5071269;28;20035;-61
2021/03/21 07:11:01;;;;;;;61.33;31.65;;;76.90;2227.20;;;;;;5070808;28;20021;-60
2021/03/21 07:13:33;;;;;;;47.83;29.67;;;76.80;2227.20;;;;;;5070989;28;20037;-60
2021/03/21 07:16:23;;;;;;;47.47;30.20;;;77.00;2227.20;;;;;;5070755;28;20498;-60
2021/03/21 07:19:20;;;;;;;180.88;107.25;;;76.90;2227.20;;;;;;5071240;28;20134;-60
2021/03/21 07:22:15;;;;;;;58.05;32.75;;;52.10;2227.20;;;;;;5071682;28;20016;-66
2021/03/21 07:25:05;;;;;;;136.70;69.57;;;52.10;2227.20;;;;;;5071518;28;20021;-60
2021/03/21 07:28:04;;;;;;;86.68;45.63;;;52.10;2227.20;;;;;;5071200;28;20122;-60
2021/03/21 07:30:42;;;;;;;33.78;25.08;;;52.10;2227.20;;;;;;5071357;28;20023;-60
2021/03/21 07:33:23;;;;;;;62.63;37.97;;;52.00;2227.20;;;;;;5071253;28;20027;-60
2021/03/21 07:36:06;;;;;;;64.45;36.00;;;76.80;2227.20;;;;;;5070086;28;20075;-60
2021/03/21 07:38:55;;;;;;;34.97;24.67;;;76.80;2227.20;;;;;;5070756;28;20107;-60
2021/03/21 07:41:43;;;;;;;37.40;21.02;;;76.80;2227.20;;;;;;5070865;28;20052;-60
2021/03/21 07:44:18;;;;;;;43.13;26.60;;;76.80;2227.20;;;;;;5048039;28;20037;-59
2021/03/21 07:46:50;;;;;;;37.55;26.52;;;52.10;2227.20;;;;;;5048281;28;20114;-60
2021/03/21 07:50:10;;;;;;;36.42;23.67;;;76.90;2227.20;;;;;;5048244;28;20041;-61
2021/03/21 07:52:47;;;;;;;50.50;33.45;;;76.90;2227.20;;;;;;4988754;28;21040;-60
2021/03/21 07:55:34;;;;;;;42.33;26.30;;;77.10;2227.20;;;;;;5040077;28;20159;-58
2021/03/21 07:58:20;;;;;;;36.25;23.42;;;77.10;2227.20;;;;;;5047886;28;20522;-59
2021/03/21 08:00:47;;;;;;;39.42;23.23;;;77.00;2227.20;;;;;;5048057;28;20513;-60
2021/03/21 08:03:15;;;;;;;40.65;24.58;;;77.00;2227.20;;;;;;5048042;28;20435;-60
2021/03/21 08:05:41;;;;;;;153.00;78.78;;;76.90;2227.20;;;;;;5048023;28;20082;-60
2021/03/21 08:08:14;;;;;;;40.25;22.73;;;52.10;2227.20;;;;;;5047842;28;20041;-60
2021/03/21 08:10:41;;;;;;;41.47;27.08;;;52.10;2227.20;;;;;;5047950;28;20029;-60
2021/03/21 08:13:18;;;;;;;84.53;40.85;;;52.00;2227.20;;;;;;5047782;28;20091;-60
2021/03/21 08:15:43;;;;;;;62.35;46.78;;;52.00;2227.20;;;;;;5047822;28;20043;-60
2021/03/21 08:18:15;;;;;;;38.67;26.50;;;52.10;2227.20;;;;;;5047485;28;20032;-59
2021/03/21 08:20:52;;;;;;;37.97;23.23;;;76.90;2227.20;;;;;;5054682;28;20043;-59
2021/03/21 08:23:25;;;;;;;50.40;26.92;;;76.80;2227.20;;;;;;5070106;28;20116;-60
2021/03/21 08:25:52;;;;;;;41.22;25.02;;;76.80;2227.20;;;;;;5070063;28;20033;-60
2021/03/21 08:28:21;;;;;;;33.95;21.90;;;77.00;2227.20;;;;;;5069883;28;20547;-60
2021/03/21 08:30:57;;;;;;;37.10;22.60;;;76.90;2227.20;;;;;;5069603;28;20494;-59
2021/03/21 08:33:31;;;;;;;30.38;19.42;;;77.10;2227.20;;;;;;5070035;28;20078;-60
2021/03/21 08:36:25;;;;;;;31.48;19.88;;;76.90;2227.20;;;;;;5069497;28;20482;-60
2021/03/21 08:38:55;;;;;;;38.00;19.48;;;76.80;2227.20;;;;;;5069707;28;20094;-59
2021/03/21 08:41:21;;;;;;;35.88;21.90;;;76.90;2201.60;;;;;;5069780;28;20115;-60
2021/03/21 08:44:01;;;;;;;31.08;19.48;;;77.00;2227.20;;;;;;5069754;28;20024;-60
2021/03/21 08:46:28;;;;;;;29.67;18.70;;;76.90;2227.20;;;;;;5069606;28;20466;-61
2021/03/21 08:49:18;;;;;;;28.67;19.70;;;76.90;2227.20;;;;;;5069745;28;20032;-59
2021/03/21 08:51:44;;;;;;;30.40;22.52;;;76.90;2227.20;;;;;;5047636;28;20119;-60
2021/03/21 08:54:13;;;;;;;33.05;20.23;;;77.10;2176.00;;;;;;5045268;28;20946;-61
2021/03/21 08:56:56;;;;;;;32.85;20.00;;;77.10;2201.60;;;;;;5045165;28;20167;-60
2021/03/21 08:59:40;;;;;;;35.00;20.73;;;77.00;2176.00;;;;;;5046228;28;20060;-61
2021/03/21 09:02:10;;;;;;;31.38;21.60;;;76.90;2176.00;;;;;;5046280;28;20036;-60
2021/03/21 09:05:00;;;;;;;37.50;23.00;;;52.10;2201.60;;;;;;5046242;28;20033;-61
2021/03/21 09:07:31;;;;;;;32.33;22.00;;;76.80;2201.60;;;;;;5045449;28;20509;-61
2021/03/21 09:10:49;;;;;;;34.08;21.90;;;77.00;2176.00;;;;;;5045146;28;20064;-60
2021/03/21 09:13:29;;;;;;;31.15;19.23;;;77.00;2176.00;;;;;;4986153;28;20041;-59
2021/03/21 09:15:55;;;;;;;30.27;23.15;;;77.10;2176.00;;;;;;4986226;28;20489;-60
2021/03/21 09:18:23;;;;;;;33.60;22.65;;;76.90;2201.60;;;;;;4986668;28;20074;-59
2021/03/21 09:20:55;;;;;;;46.20;29.67;;;76.90;2201.60;;;;;;4989159;28;20022;-60
2021/03/21 09:23:47;;;;;;;46.40;27.77;;;77.10;2150.40;;;;;;4989335;28;20437;-60
2021/03/21 09:26:12;;;;;;;65.85;42.95;;;77.00;2201.60;;;;;;4989529;28;20034;-59
2021/03/21 09:28:42;;;;;;;58.60;37.00;;;77.20;2150.40;;;;;;5007742;28;20030;-60
2021/03/21 09:31:13;;;;;;;107.35;66.57;;;77.10;2150.40;;;;;;5028552;28;20025;-60
2021/03/21 09:34:00;;;;;;;34.70;24.30;;;76.90;2176.00;;;;;;5028202;28;20037;-60
2021/03/21 09:36:38;;;;;;;664.30;422.48;;;77.10;2176.00;;;;;;5016168;28;20543;-60
2021/03/21 09:39:30;;;;;;;46.75;30.05;;;77.10;2150.40;;;;;;5016500;28;20069;-60
2021/03/21 09:41:57;;;;;;;163.63;97.70;;;77.10;2150.40;;;;;;5010002;28;20042;-59
2021/03/21 09:44:48;;;;;;;46.83;31.75;;;77.40;2099.20;;;;;;5008888;28;20610;-58
2021/03/21 09:47:22;;;;;;;35.58;23.13;;;77.20;2150.40;;;;;;4988778;28;20042;-59
2021/03/21 09:50:16;;;;;;;49.78;31.25;;;77.30;2124.80;;;;;;4998955;28;20030;-60
2021/03/21 09:52:47;;;;;;;;;;;77.20;2124.80;;;;;;5009200;28;20484;-59
2021/03/21 09:55:23;;;;;;;31.85;21.00;;;77.30;2150.40;;;;;;5008522;28;19909;-60
2021/03/21 09:58:26;;;;;;;52.15;37.33;;;77.20;2150.40;;;;;;5008139;28;20054;-59
2021/03/21 10:01:41;;;;;;;39.25;27.08;;;77.20;2176.00;;;;;;5008064;28;20451;-60
2021/03/21 10:04:47;;;;;;;31.08;21.17;;;77.30;2150.40;;;;;;4988178;28;20070;-61
2021/03/21 10:07:21;;;;;;;38.28;21.90;;;77.40;2150.40;;;;;;4986821;28;20061;-60
2021/03/21 10:09:49;;;;;;;33.15;21.50;;;77.30;2176.00;;;;;;4995280;28;20123;-59
2021/03/21 10:12:16;;;;;;;33.08;21.48;;;77.10;2201.60;;;;;;4996401;28;20571;-59
2021/03/21 10:14:48;;;;;;;36.85;22.48;;;76.90;2201.60;;;;;;4998131;28;20056;-60
2021/03/21 10:17:17;;;;;;;41.83;24.98;;;77.00;2227.20;;;;;;4997337;28;20045;-59
2021/03/21 10:19:49;;;;;;;34.60;21.88;;;77.00;2227.20;;;;;;4993594;28;20078;-59
2021/03/21 10:22:17;;;;;;;41.05;22.75;;;77.00;2201.60;;;;;;4996330;28;20030;-59
2021/03/21 10:24:52;;;;;;;41.97;25.27;;;77.00;2201.60;;;;;;5010897;28;20049;-58
2021/03/21 10:27:19;;;;;;;76.68;42.97;;;77.10;2201.60;;;;;;5017250;28;20069;-59
2021/03/21 10:30:24;;;;;;;109.03;54.08;;;77.10;2176.00;;;;;;5009466;28;20033;-59
2021/03/21 10:32:58;;;;;;;73.68;40.00;;;77.20;2176.00;;;;;;4987890;28;20038;-59
2021/03/21 10:35:24;;;;;;;57.10;37.55;;;77.30;2176.00;;;;;;4988370;28;20088;-59
2021/03/21 10:37:50;;;;;;;44.30;27.98;;;77.30;2201.60;;;;;;4987952;28;20071;-58
2021/03/21 10:40:39;;;;;;;99.32;59.10;;;77.40;2150.40;;;;;;4988023;28;20411;-60
2021/03/21 10:43:17;;;;;;;37.90;24.33;;;77.30;2150.40;;;;;;4987916;28;20034;-59
2021/03/21 10:45:43;;;;;;;34.67;23.25;;;77.30;2150.40;;;;;;4988070;28;20041;-59
2021/03/21 10:48:14;;;;;;;43.08;24.17;;;77.10;2150.40;;;;;;4988098;28;20732;-60
2021/03/21 10:50:46;;;;;;;44.65;26.75;;;77.30;2124.80;;;;;;4987986;28;20030;-59
2021/03/21 10:53:24;;;;;;;92.85;55.80;;;77.30;2124.80;;;;;;5003942;28;20038;-60
2021/03/21 10:56:05;;;;;;;46.83;26.02;;;77.20;2150.40;;;;;;5006928;28;20164;-60
2021/03/21 10:58:36;;;;;;;257.88;97.25;;;77.20;2176.00;;;;;;5007303;28;20103;-59
2021/03/21 11:01:17;;;;;;;65.40;37.00;;;77.40;2150.40;;;;;;5006812;28;20030;-60
2021/03/21 11:04:02;;;;;;;34.60;23.13;;;77.50;2124.80;;;;;;5007512;28;20045;-59
2021/03/21 11:06:31;;;;;;;38.97;23.17;;;77.40;2124.80;;;;;;5023224;28;20033;-60
2021/03/21 11:09:09;;;;;;;175.40;77.95;;;77.10;2176.00;;;;;;5048921;28;20057;-61
2021/03/21 11:11:38;;;;;;;51.08;29.02;;;76.90;2201.60;;;;;;5049237;28;20025;-60
2021/03/21 11:14:18;;;;;;;36.97;25.65;;;77.00;2227.20;;;;;;5047854;28;20032;-59
2021/03/21 11:16:51;;;;;;;38.17;23.67;;;77.00;2201.60;;;;;;5049306;28;20087;-59
2021/03/21 11:19:18;;;;;;;43.33;26.48;;;77.10;2201.60;;;;;;5048977;28;20036;-59
2021/03/21 11:21:44;;;;;;;38.63;24.52;;;77.30;2176.00;;;;;;5048972;28;20116;-59
2021/03/21 11:24:25;;;;;;;35.95;24.42;;;77.30;2150.40;;;;;;5049158;28;20025;-60
2021/03/21 11:26:52;;;;;;;43.72;26.27;;;77.30;2176.00;;;;;;5048872;28;20029;-61
2021/03/21 11:29:27;;;;;;;44.38;26.35;;;77.20;2150.40;;;;;;5048922;28;20021;-61
2021/03/21 11:31:54;;;;;;;57.78;32.97;;;77.20;2176.00;;;;;;5049010;28;20020;-59
2021/03/21 11:34:34;;;;;;;49.45;32.00;;;77.40;2150.40;;;;;;5048612;28;20112;-61
2021/03/21 11:37:11;;;;;;;35.47;22.23;;;77.40;2150.40;;;;;;5048548;28;20048;-61
2021/03/21 11:39:42;;;;;;;39.70;27.33;;;77.40;2176.00;;;;;;5048636;28;20108;-60
2021/03/21 11:42:24;;;;;;;35.40;23.13;;;77.30;2150.40;;;;;;5048077;28;20021;-59
2021/03/21 11:44:53;;;;;;;186.95;88.95;;;77.30;2150.40;;;;;;5048466;28;20017;-59
2021/03/21 11:47:25;;;;;;;46.47;29.10;;;77.50;2150.40;;;;;;5059261;28;20038;-58
2021/03/21 11:49:51;;;;;;;35.92;21.50;;;77.50;2124.80;;;;;;5070241;28;20036;-56
2021/03/21 11:52:18;;;;;;;70.55;40.25;;;77.50;2124.80;;;;;;5068553;28;20107;-60
2021/03/21 11:54:46;;;;;;;39.22;25.75;;;77.40;2124.80;;;;;;5069003;28;20032;-59
2021/03/21 11:57:21;;;;;;;42.55;27.55;;;77.40;2099.20;;;;;;5068691;28;20056;-61
2021/03/21 12:00:00;;;;;;;32.95;22.60;;;77.20;2124.80;;;;;;5068226;28;20044;-58
2021/03/21 12:02:53;;;;;;;93.45;51.58;;;77.40;2124.80;;;;;;5068464;28;20501;-61
2021/03/21 12:05:21;;;;;;;65.93;36.37;;;77.50;2124.80;;;;;;5034032;28;20038;-61
2021/03/21 12:07:48;;;;;;;61.05;33.70;;;77.70;2099.20;;;;;;5026081;28;20656;-61
2021/03/21 12:10:37;;;;;;;37.72;26.52;;;77.60;2099.20;;;;;;5026180;28;20037;-60
2021/03/21 12:13:37;;;;;;;33.75;22.88;;;77.50;2150.40;;;;;;5025827;28;20025;-59
2021/03/21 12:16:26;;;;;;;41.78;26.02;;;77.60;2150.40;;;;;;5026192;28;20069;-59
2021/03/21 12:18:56;;;;;;;52.63;30.40;;;77.60;2099.20;;;;;;5026251;28;20033;-59
2021/03/21 12:21:23;;;;;;;47.03;30.95;;;77.60;2124.80;;;;;;5044258;28;20128;-59
2021/03/21 12:24:01;;;;;;;61.33;35.17;;;77.60;2150.40;;;;;;5048148;28;20036;-58
2021/03/21 12:26:32;;;;;;;47.42;32.30;;;77.70;2124.80;;;;;;5047408;28;20025;-60
2021/03/21 12:29:05;;;;;;;50.20;30.35;;;77.40;2124.80;;;;;;5047476;28;20033;-59
2021/03/21 12:31:39;;;;;;;51.22;33.33;;;77.60;2150.40;;;;;;5047510;28;20033;-60
2021/03/21 12:34:34;;;;;;;55.42;33.15;;;77.70;2124.80;;;;;;5047743;28;20167;-60
2021/03/21 12:37:01;;;;;;;34.78;21.42;;;77.70;2099.20;;;;;;5047349;28;20060;-60
2021/03/21 12:39:32;;;;;;;40.55;25.05;;;77.60;2099.20;;;;;;5047541;28;20032;-60
2021/03/21 12:41:59;;;;;;;40.13;26.98;;;77.60;2124.80;;;;;;5055093;28;20040;-60
2021/03/21 12:44:33;;;;;;;46.30;30.50;;;102.40;2099.20;;;;;;5069618;28;20036;-60
2021/03/21 12:47:06;;;;;;;29.90;20.13;;;102.40;2099.20;;;;;;5069567;28;20025;-60
2021/03/21 12:49:47;;;;;;;34.25;22.10;;;77.70;2099.20;;;;;;5069940;28;20029;-60
2021/03/21 12:52:22;;;;;;;37.40;23.33;;;77.70;2099.20;;;;;;5070367;28;20029;-60
2021/03/21 12:54:49;;;;;;;45.70;28.25;;;77.70;2099.20;;;;;;5073505;28;20070;-59
2021/03/21 12:57:15;;;;;;;42.95;22.83;;;102.40;2124.80;;;;;;5073542;28;20037;-60
2021/03/21 12:59:45;;;;;;;45.35;30.33;;;102.40;2099.20;;;;;;5073436;28;20036;-60